createdAt,value
2022-10-13T00:00:53.113Z,96369.88
2022-10-13T00:03:20.785Z,96363.97
2022-10-13T00:05:51.287Z,96363.25
2022-10-13T00:08:21.479Z,96357.50
2022-10-13T00:11:00.404Z,96351.59
2022-10-13T00:13:29.238Z,96355.56
2022-10-13T00:15:57.053Z,96356.78
2022-10-13T00:18:24.828Z,96355.75
2022-10-13T00:20:53.848Z,96363.13
2022-10-13T00:23:21.979Z,96351.53
2022-10-13T00:25:51.374Z,96353.31
2022-10-13T00:28:20.793Z,96351.00
2022-10-13T00:30:48.836Z,96353.03
2022-10-13T00:33:16.486Z,96339.16
2022-10-13T00:35:48.332Z,96350.91
2022-10-13T00:38:18.708Z,96352.44
2022-10-13T00:40:47.459Z,96340.63
2022-10-13T00:43:18.566Z,96349.00
2022-10-13T00:45:46.692Z,96348.78
2022-10-13T00:48:14.389Z,96348.34
2022-10-13T00:50:43.441Z,96348.34
2022-10-13T00:53:12.892Z,96345.09
2022-10-13T00:55:44.184Z,96346.25
2022-10-13T00:58:16.294Z,96342.06
2022-10-13T01:00:46.197Z,96327.06
2022-10-13T01:03:13.749Z,96325.28
2022-10-13T01:05:42.637Z,96326.88
2022-10-13T01:08:12.151Z,96334.09
2022-10-13T01:10:49.273Z,96328.91
2022-10-13T01:13:24.444Z,96320.25
2022-10-13T01:15:59.524Z,96317.06
2022-10-13T01:18:35.847Z,96321.38
2022-10-13T01:21:18.238Z,96315.75
2022-10-13T01:24:22.164Z,96322.72
2022-10-13T01:27:04.723Z,96318.34
2022-10-13T01:29:51.431Z,96314.19
2022-10-13T01:32:30.776Z,96316.22
2022-10-13T01:35:09.163Z,96300.53
2022-10-13T01:37:44.540Z,96307.09
2022-10-13T01:40:17.461Z,96311.84
2022-10-13T01:42:49.183Z,96311.75
2022-10-13T01:45:23.010Z,96310.28
2022-10-13T01:47:52.339Z,96298.25
2022-10-13T01:50:20.274Z,96295.97
2022-10-13T01:52:48.992Z,96294.19
2022-10-13T01:55:16.471Z,96295.34
2022-10-13T01:57:46.148Z,96279.97
2022-10-13T02:00:16.703Z,96289.44
2022-10-13T02:02:53.506Z,96289.44
2022-10-13T02:05:28.166Z,96288.63
2022-10-13T02:08:01.011Z,96276.78
2022-10-13T02:10:34.300Z,96281.66
2022-10-13T02:13:04.750Z,96275.00
2022-10-13T02:15:36.110Z,96278.81
2022-10-13T02:18:05.648Z,96265.09
2022-10-13T02:20:33.435Z,96281.66
2022-10-13T02:23:05.034Z,96261.66
2022-10-13T02:25:34.668Z,96266.78
2022-10-13T02:28:02.928Z,96280.91
2022-10-13T02:30:33.050Z,96276.47
2022-10-13T02:33:01.061Z,96273.75
2022-10-13T02:35:30.926Z,96279.41
2022-10-13T02:37:58.310Z,96277.69
2022-10-13T02:40:25.864Z,96281.97
2022-10-13T02:42:53.626Z,96279.00
2022-10-13T02:45:21.581Z,96281.47
2022-10-13T02:47:49.045Z,96284.06
2022-10-13T02:50:16.882Z,96270.06
2022-10-13T02:52:45.643Z,96277.47
2022-10-13T02:55:13.060Z,96277.78
2022-10-13T02:57:40.485Z,96266.50
2022-10-13T03:00:09.179Z,96271.03
2022-10-13T03:02:36.624Z,96270.00
2022-10-13T03:05:04.322Z,96272.53
2022-10-13T03:07:31.735Z,96277.28
2022-10-13T03:10:00.503Z,96280.34
2022-10-13T03:12:27.972Z,96278.31
2022-10-13T03:14:55.388Z,96280.47
2022-10-13T03:17:22.818Z,96276.66
2022-10-13T03:19:50.223Z,96264.06
2022-10-13T03:22:18.355Z,96269.25
2022-10-13T03:24:46.078Z,96258.94
2022-10-13T03:27:15.636Z,96251.81
2022-10-13T03:29:43.041Z,96259.00
2022-10-13T03:32:10.736Z,96242.13
2022-10-13T03:34:38.197Z,96245.06
2022-10-13T03:37:06.205Z,96234.13
2022-10-13T03:39:33.768Z,96212.44
2022-10-13T03:42:01.330Z,96231.09
2022-10-13T03:44:30.172Z,96225.44
2022-10-13T03:46:57.736Z,96225.25
2022-10-13T03:49:25.120Z,96228.84
2022-10-13T03:51:52.516Z,96224.22
2022-10-13T03:54:19.922Z,96212.38
2022-10-13T03:56:47.444Z,96221.97
2022-10-13T03:59:16.789Z,96210.13
2022-10-13T04:01:45.524Z,96215.53
2022-10-13T04:04:13.202Z,96212.38
2022-10-13T04:06:40.672Z,96216.34
2022-10-13T04:09:08.092Z,96204.81
2022-10-13T04:11:35.511Z,96201.88
2022-10-13T04:14:03.016Z,96217.91
2022-10-13T04:16:32.148Z,96218.81
2022-10-13T04:19:02.539Z,96205.47
2022-10-13T04:21:31.664Z,96230.44
2022-10-13T04:24:00.350Z,96222.56
2022-10-13T04:26:31.115Z,96211.94
2022-10-13T04:28:59.259Z,96208.97
2022-10-13T04:31:28.924Z,96217.69
2022-10-13T04:33:56.409Z,96222.44
2022-10-13T04:36:25.851Z,96220.59
2022-10-13T04:38:54.669Z,96225.91
2022-10-13T04:41:22.867Z,96209.22
2022-10-13T04:43:51.469Z,96206.63
2022-10-13T04:46:21.575Z,96232.47
2022-10-13T04:48:49.051Z,96206.16
2022-10-13T04:51:18.369Z,96223.22
2022-10-13T04:53:47.654Z,96217.69
2022-10-13T04:56:17.430Z,96208.44
2022-10-13T04:58:46.715Z,96200.19
2022-10-13T05:01:21.188Z,96212.50
2022-10-13T05:03:51.838Z,96210.03
2022-10-13T05:06:22.262Z,96190.13
2022-10-13T05:08:51.338Z,96205.97
2022-10-13T05:11:20.480Z,96201.53
2022-10-13T05:13:48.321Z,96195.91
2022-10-13T05:16:17.199Z,96190.13
2022-10-13T05:18:44.972Z,96178.41
2022-10-13T05:21:14.427Z,96183.69
2022-10-13T05:23:42.596Z,96166.31
2022-10-13T05:26:13.338Z,96178.28
2022-10-13T05:28:41.347Z,96177.94
2022-10-13T05:31:13.181Z,96176.59
2022-10-13T05:33:41.227Z,96165.31
2022-10-13T05:36:11.743Z,96175.94
2022-10-13T05:38:39.591Z,96175.25
2022-10-13T05:41:10.223Z,96177.59
2022-10-13T05:43:40.199Z,96170.06
2022-10-13T05:46:07.964Z,96159.66
2022-10-13T05:48:35.955Z,96179.19
2022-10-13T05:51:07.651Z,96166.78
2022-10-13T05:53:38.615Z,96177.59
2022-10-13T05:56:12.364Z,96176.47
2022-10-13T05:58:44.444Z,96168.88
2022-10-13T06:01:16.006Z,96171.38
2022-10-13T06:03:44.900Z,96160.88
2022-10-13T06:06:12.397Z,96164.03
2022-10-13T06:08:39.810Z,96155.22
2022-10-13T06:11:08.159Z,96161.00
2022-10-13T06:13:35.818Z,96164.06
2022-10-13T06:16:05.028Z,96160.53
2022-10-13T06:18:32.478Z,96167.31
2022-10-13T06:20:59.910Z,96177.03
2022-10-13T06:23:27.340Z,96165.97
2022-10-13T06:25:54.860Z,96176.78
2022-10-13T06:28:22.681Z,96164.06
2022-10-13T06:30:56.360Z,96156.94
2022-10-13T06:33:25.937Z,96154.00
2022-10-13T06:35:53.637Z,96165.84
2022-10-13T06:38:21.096Z,96176.91
2022-10-13T06:40:48.738Z,96171.28
2022-10-13T06:43:16.145Z,96165.88
2022-10-13T06:45:43.543Z,96175.00
2022-10-13T06:48:10.939Z,96171.97
2022-10-13T06:50:42.877Z,96173.91
2022-10-13T06:53:10.545Z,96172.63
2022-10-13T06:55:37.957Z,96171.41
2022-10-13T06:58:05.377Z,96161.81
2022-10-13T07:00:32.825Z,96162.94
2022-10-13T07:03:00.291Z,96172.19
2022-10-13T07:05:27.683Z,96155.50
2022-10-13T07:07:56.618Z,96175.44
2022-10-13T07:10:24.042Z,96170.94
2022-10-13T07:12:51.538Z,96170.72
2022-10-13T07:15:18.951Z,96175.09
2022-10-13T07:17:46.342Z,96177.69
2022-10-13T07:20:13.744Z,96173.06
2022-10-13T07:22:41.151Z,96169.91
2022-10-13T07:25:10.856Z,96170.78
2022-10-13T07:27:40.671Z,96176.75
2022-10-13T07:30:09.800Z,96162.69
2022-10-13T07:32:37.310Z,96171.94
2022-10-13T07:35:05.110Z,96166.28
2022-10-13T07:37:32.556Z,96149.97
2022-10-13T07:40:00.302Z,96161.44
2022-10-13T07:42:29.039Z,96158.25
2022-10-13T07:44:56.446Z,96156.19
2022-10-13T07:47:24.246Z,96151.31
2022-10-13T07:49:51.682Z,96153.69
2022-10-13T07:52:19.395Z,96142.66
2022-10-13T07:54:46.919Z,96149.53
2022-10-13T07:57:15.126Z,96151.44
2022-10-13T07:59:43.891Z,96156.84
2022-10-13T08:02:11.358Z,96150.59
2022-10-13T08:04:39.004Z,96158.97
2022-10-13T08:07:07.156Z,96162.97
2022-10-13T08:09:34.940Z,96154.47
2022-10-13T08:12:02.394Z,96167.31
2022-10-13T08:14:30.221Z,96148.06
2022-10-13T08:16:59.362Z,96157.53
2022-10-13T08:19:28.220Z,96149.19
2022-10-13T08:21:59.286Z,96163.84
2022-10-13T08:24:27.820Z,96160.78
2022-10-13T08:26:56.403Z,96149.63
2022-10-13T08:29:24.507Z,96150.66
2022-10-13T08:31:53.093Z,96155.75
2022-10-13T08:34:22.543Z,96149.03
2022-10-13T08:36:52.720Z,96153.13
2022-10-13T08:39:20.172Z,96143.88
2022-10-13T08:41:47.876Z,96149.44
2022-10-13T08:47:16.561Z,96150.66
2022-10-13T08:49:46.159Z,96142.16
2022-10-13T08:52:19.707Z,96149.84
2022-10-13T08:54:47.988Z,96153.34
2022-10-13T08:57:15.681Z,96153.72
2022-10-13T08:59:43.145Z,96147.03
2022-10-13T09:02:14.611Z,96140.72
2022-10-13T09:04:49.202Z,96152.84
2022-10-13T09:07:20.417Z,96159.72
2022-10-13T09:09:51.815Z,96152.72
2022-10-13T09:12:22.120Z,96117.56
2022-10-13T09:14:59.587Z,96157.00
2022-10-13T09:17:28.068Z,96161.63
2022-10-13T09:20:02.690Z,96154.59
2022-10-13T09:22:32.373Z,96157.00
2022-10-13T09:25:10.775Z,96164.59
2022-10-13T09:27:45.816Z,96157.47
2022-10-13T09:30:28.680Z,96153.13
2022-10-13T09:33:07.496Z,96142.19
2022-10-13T09:35:37.009Z,96156.13
2022-10-13T09:38:05.114Z,96146.25
2022-10-13T09:40:33.437Z,96144.16
2022-10-13T09:43:02.711Z,96152.03
2022-10-13T09:45:31.006Z,96147.34
2022-10-13T09:48:01.393Z,96147.34
2022-10-13T09:50:30.993Z,96148.19
2022-10-13T09:53:18.432Z,96143.31
2022-10-13T09:55:48.451Z,96137.09
2022-10-13T09:58:20.710Z,96138.19
2022-10-13T10:00:52.094Z,96135.09
2022-10-13T10:03:23.722Z,96130.66
2022-10-13T10:05:55.499Z,96133.88
2022-10-13T10:08:33.694Z,96117.91
2022-10-13T10:11:12.876Z,96113.78
2022-10-13T10:13:40.296Z,96117.50
2022-10-13T10:16:13.263Z,96106.53
2022-10-13T10:18:46.195Z,96112.41
2022-10-13T10:21:24.735Z,96111.91
2022-10-13T10:24:00.775Z,96106.16
2022-10-13T10:26:44.694Z,96099.38
2022-10-13T10:29:20.540Z,96098.88
2022-10-13T10:32:00.193Z,96089.97
2022-10-13T10:34:42.394Z,96093.88
2022-10-13T10:37:21.454Z,96088.91
2022-10-13T10:40:00.690Z,96080.78
2022-10-13T10:42:53.011Z,96084.47
2022-10-13T10:45:24.526Z,96085.25
2022-10-13T10:47:56.969Z,96090.50
2022-10-13T10:50:25.155Z,96091.00
2022-10-13T10:53:00.898Z,96089.69
2022-10-13T10:55:35.588Z,96085.50
2022-10-13T10:58:19.459Z,96083.41
2022-10-13T11:00:56.492Z,96080.00
2022-10-13T11:03:38.364Z,96063.50
2022-10-13T11:06:22.213Z,96067.97
2022-10-13T11:08:50.407Z,96072.16
2022-10-13T11:11:42.086Z,96059.59
2022-10-13T11:14:31.824Z,96056.97
2022-10-13T11:17:18.851Z,96055.09
2022-10-13T11:19:48.583Z,96050.38
2022-10-13T11:22:19.622Z,96052.44
2022-10-13T11:24:50.315Z,96032.00
2022-10-13T11:27:26.788Z,96039.28
2022-10-13T11:29:57.732Z,96031.16
2022-10-13T11:32:55.522Z,96042.13
2022-10-13T11:35:29.580Z,96046.88
2022-10-13T11:38:21.752Z,96035.84
2022-10-13T11:41:08.419Z,96044.03
2022-10-13T11:43:48.115Z,96036.94
2022-10-13T11:46:27.510Z,96032.50
2022-10-13T11:49:15.692Z,96028.09
2022-10-13T11:52:02.020Z,96029.69
2022-10-13T11:54:35.356Z,96015.25
2022-10-13T11:57:04.542Z,96019.72
2022-10-13T11:59:35.233Z,96021.28
2022-10-13T12:02:12.199Z,96026.78
2022-10-13T12:04:46.507Z,96026.53
2022-10-13T12:07:16.558Z,96016.09
2022-10-13T12:09:51.197Z,96024.69
2022-10-13T12:12:21.341Z,96012.41
2022-10-13T12:14:52.408Z,96012.63
2022-10-13T12:17:23.979Z,96018.91
2022-10-13T12:19:51.724Z,96015.25
2022-10-13T12:22:19.154Z,96016.78
2022-10-13T12:24:58.877Z,95999.72
2022-10-13T12:27:27.322Z,96006.28
2022-10-13T12:29:56.193Z,96007.31
2022-10-13T12:32:26.104Z,95998.38
2022-10-13T12:34:53.768Z,96000.72
2022-10-13T12:37:30.767Z,95998.41
2022-10-13T12:39:59.557Z,96004.38
2022-10-13T12:42:30.524Z,95999.69
2022-10-13T12:45:01.215Z,95991.84
2022-10-13T12:47:40.875Z,95994.00
2022-10-13T12:50:34.116Z,95992.84
2022-10-13T12:53:17.779Z,95993.91
2022-10-13T12:56:06.412Z,95988.41
2022-10-13T12:58:35.692Z,95995.75
2022-10-13T13:01:26.296Z,95995.75
2022-10-13T13:03:57.009Z,95991.28
2022-10-13T13:06:30.932Z,95992.88
2022-10-13T13:09:29.490Z,95984.78
2022-10-13T13:12:16.587Z,95987.09
2022-10-13T13:14:47.303Z,95967.69
2022-10-13T13:17:56.595Z,95974.22
2022-10-13T13:20:21.680Z,95981.56
2022-10-13T13:22:50.600Z,95978.91
2022-10-13T13:25:17.990Z,95984.41
2022-10-13T13:27:45.394Z,95977.53
2022-10-13T13:30:14.885Z,95982.56
2022-10-13T13:32:43.698Z,95979.16
2022-10-13T13:35:11.736Z,95978.66
2022-10-13T13:37:42.505Z,95967.63
2022-10-13T13:40:17.314Z,95964.41
2022-10-13T13:42:45.015Z,95960.16
2022-10-13T13:45:13.970Z,95967.19
2022-10-13T13:47:43.376Z,95966.31
2022-10-13T13:50:16.953Z,95960.72
2022-10-13T13:52:44.388Z,95958.91
2022-10-13T13:55:11.791Z,95956.47
2022-10-13T13:57:39.196Z,95960.47
2022-10-13T14:00:07.911Z,95954.53
2022-10-13T14:02:35.458Z,95954.81
2022-10-13T14:05:04.905Z,95959.31
2022-10-13T14:07:32.668Z,95951.47
2022-10-13T14:10:02.024Z,95950.91
2022-10-13T14:12:30.324Z,95938.09
2022-10-13T14:14:58.379Z,95945.94
2022-10-13T14:17:26.244Z,95939.41
2022-10-13T14:19:54.679Z,95943.06
2022-10-13T14:22:23.733Z,95933.13
2022-10-13T14:24:51.338Z,95932.91
2022-10-13T14:27:18.770Z,95930.06
2022-10-13T14:29:46.185Z,95930.63
2022-10-13T14:32:13.650Z,95921.78
2022-10-13T14:34:41.062Z,95934.34
2022-10-13T14:37:08.465Z,95933.03
2022-10-13T14:39:37.298Z,95931.50
2022-10-13T14:42:04.776Z,95938.09
2022-10-13T14:44:32.208Z,95923.19
2022-10-13T14:46:59.624Z,95931.63
2022-10-13T14:49:27.119Z,95926.94
2022-10-13T14:51:54.589Z,95929.56
2022-10-13T14:54:22.028Z,95924.34
2022-10-13T14:56:50.795Z,95928.56
2022-10-13T14:59:18.439Z,95924.09
2022-10-13T15:01:46.395Z,95916.25
2022-10-13T15:04:13.844Z,95915.47
2022-10-13T15:06:41.355Z,95908.94
2022-10-13T15:09:10.159Z,95913.91
2022-10-13T15:11:37.815Z,95912.06
2022-10-13T15:14:07.365Z,95913.41
2022-10-13T15:16:35.003Z,95907.91
2022-10-13T15:19:02.440Z,95917.31
2022-10-13T15:21:29.907Z,95922.03
2022-10-13T15:23:57.745Z,95920.72
2022-10-13T15:26:25.236Z,95924.41
2022-10-13T15:28:54.252Z,95910.50
2022-10-13T15:31:24.339Z,95880.97
2022-10-13T15:33:54.085Z,95894.81
2022-10-13T15:36:22.697Z,95891.94
2022-10-13T15:38:50.438Z,95911.31
2022-10-13T15:41:18.378Z,95901.91
2022-10-13T15:43:45.766Z,95909.25
2022-10-13T15:46:20.981Z,95894.06
2022-10-13T15:48:50.614Z,95902.69
2022-10-13T15:51:20.304Z,95904.78
2022-10-13T15:53:48.179Z,95898.28
2022-10-13T15:56:15.628Z,95893.56
2022-10-13T15:58:43.614Z,95903.53
2022-10-13T16:01:12.755Z,95901.44
2022-10-13T16:03:40.860Z,95903.53
2022-10-13T16:06:12.377Z,95901.44
2022-10-13T16:08:40.655Z,95893.31
2022-10-13T16:11:09.491Z,95893.88
2022-10-13T16:13:37.065Z,95898.59
2022-10-13T16:16:04.552Z,95892.06
2022-10-13T16:18:33.139Z,95900.44
2022-10-13T16:21:01.148Z,95899.66
2022-10-13T16:23:29.875Z,95901.22
2022-10-13T16:25:57.268Z,95905.09
2022-10-13T16:28:24.747Z,95898.31
2022-10-13T16:30:52.170Z,95907.19
2022-10-13T16:33:19.586Z,95898.31
2022-10-13T16:35:47.001Z,95902.25
2022-10-13T16:38:14.427Z,95908.00
2022-10-13T16:40:43.192Z,95901.97
2022-10-13T16:43:10.585Z,95906.41
2022-10-13T16:45:58.521Z,95904.56
2022-10-13T16:48:25.468Z,95906.38
2022-10-13T16:50:53.011Z,95914.19
2022-10-13T16:53:20.723Z,95920.19
2022-10-13T16:55:49.731Z,95913.06
2022-10-13T16:58:17.436Z,95914.56
2022-10-13T17:00:44.976Z,95906.69
2022-10-13T17:03:12.411Z,95921.81
2022-10-13T17:05:39.823Z,95924.72
2022-10-13T17:08:08.222Z,95920.19
2022-10-13T17:10:35.988Z,95918.91
2022-10-13T17:13:04.755Z,95914.41
2022-10-13T17:15:32.174Z,95921.09
2022-10-13T17:17:59.579Z,95928.09
2022-10-13T17:20:27.001Z,95921.00
2022-10-13T17:22:54.559Z,95918.09
2022-10-13T17:25:21.944Z,95923.81
2022-10-13T17:27:49.421Z,95932.41
2022-10-13T17:30:18.198Z,95925.28
2022-10-13T17:32:45.639Z,95926.03
2022-10-13T17:35:17.778Z,95923.09
2022-10-13T17:37:45.286Z,95939.28
2022-10-13T17:40:12.989Z,95933.75
2022-10-13T17:42:40.393Z,95926.38
2022-10-13T17:45:09.058Z,95938.66
2022-10-13T17:47:37.824Z,95926.28
2022-10-13T17:50:06.070Z,95951.09
2022-10-13T17:52:33.552Z,95933.28
2022-10-13T17:55:00.927Z,95935.41
2022-10-13T17:57:30.468Z,95946.31
2022-10-13T17:59:57.872Z,95952.59
2022-10-13T18:02:25.341Z,95937.75
2022-10-13T18:04:54.077Z,95950.00
2022-10-13T18:07:21.836Z,95947.44
2022-10-13T18:09:51.704Z,95951.91
2022-10-13T18:12:19.216Z,95947.13
2022-10-13T18:14:46.629Z,95953.72
2022-10-13T18:17:14.037Z,95949.13
2022-10-13T18:19:42.154Z,95956.22
2022-10-13T18:22:10.993Z,95946.50
2022-10-13T18:24:38.483Z,95956.13
2022-10-13T18:27:05.882Z,95946.28
2022-10-13T18:29:33.267Z,95937.00
2022-10-13T18:32:00.663Z,95952.22
2022-10-13T18:34:28.100Z,95947.22
2022-10-13T18:36:55.941Z,95945.94
2022-10-13T18:39:27.149Z,95933.59
2022-10-13T18:41:55.841Z,95945.59
2022-10-13T18:44:24.917Z,95947.19
2022-10-13T18:46:56.263Z,95956.28
2022-10-13T18:49:31.609Z,95953.91
2022-10-13T18:51:59.475Z,95956.53
2022-10-13T18:54:29.459Z,95945.91
2022-10-13T18:56:57.258Z,95951.16
2022-10-13T18:59:26.394Z,95943.53
2022-10-13T19:01:53.778Z,95954.22
2022-10-13T19:04:22.166Z,95956.88
2022-10-13T19:06:49.741Z,95953.03
2022-10-13T19:09:18.014Z,95948.34
2022-10-13T19:11:46.762Z,95951.03
2022-10-13T19:14:14.689Z,95964.66
2022-10-13T19:16:43.894Z,95969.38
2022-10-13T19:19:11.475Z,95964.97
2022-10-13T19:21:39.768Z,95963.94
2022-10-13T19:24:08.127Z,95956.66
2022-10-13T19:26:37.731Z,95959.78
2022-10-13T19:29:08.726Z,95958.53
2022-10-13T19:31:37.376Z,95950.94
2022-10-13T19:34:05.462Z,95955.63
2022-10-13T19:36:35.299Z,95951.97
2022-10-13T19:39:04.662Z,95956.41
2022-10-13T19:41:33.726Z,95960.84
2022-10-13T19:44:01.691Z,95955.09
2022-10-13T19:46:30.496Z,95913.94
2022-10-13T19:48:57.936Z,95939.13
2022-10-13T19:51:25.371Z,95949.81
2022-10-13T19:53:52.868Z,95954.00
2022-10-13T19:56:25.739Z,95948.75
2022-10-13T19:58:54.357Z,95940.34
2022-10-13T20:01:22.241Z,95953.94
2022-10-13T20:03:51.563Z,95958.09
2022-10-13T20:06:20.458Z,95959.41
2022-10-13T20:08:48.313Z,95950.53
2022-10-13T20:11:23.078Z,95957.94
2022-10-13T20:13:51.514Z,95956.41
2022-10-13T20:16:21.458Z,95953.03
2022-10-13T20:18:54.225Z,95959.72
2022-10-13T20:21:22.241Z,95957.25
2022-10-13T20:23:50.586Z,95956.00
2022-10-13T20:26:18.484Z,95970.66
2022-10-13T20:28:47.534Z,95967.25
2022-10-13T20:31:17.146Z,95970.91
2022-10-13T20:33:44.639Z,95968.03
2022-10-13T20:36:15.528Z,95971.19
2022-10-13T20:38:42.997Z,95974.34
2022-10-13T20:41:16.774Z,95983.44
2022-10-13T20:43:44.272Z,95977.94
2022-10-13T20:46:12.242Z,95977.16
2022-10-13T20:49:05.533Z,95977.16
2022-10-13T20:51:30.365Z,95979.25
2022-10-13T20:53:58.341Z,95969.88
2022-10-13T20:56:27.643Z,95975.59
2022-10-13T20:58:55.287Z,95967.75
2022-10-13T21:01:23.723Z,95972.47
2022-10-13T21:03:54.874Z,95970.38
2022-10-13T21:06:23.834Z,95975.97
2022-10-13T21:08:53.096Z,95970.16
2022-10-13T21:11:22.188Z,95952.34
2022-10-13T21:13:50.470Z,95953.09
2022-10-13T21:16:19.653Z,95963.56
2022-10-13T21:18:48.890Z,95961.25
2022-10-13T21:21:17.993Z,95962.03
2022-10-13T21:23:45.948Z,95959.41
2022-10-13T21:26:20.394Z,95944.19
2022-10-13T21:28:49.141Z,95953.91
2022-10-13T21:31:17.333Z,95960.72
2022-10-13T21:33:45.458Z,95961.25
2022-10-13T21:36:15.023Z,95960.75
2022-10-13T21:38:43.337Z,95953.72
2022-10-13T21:41:13.016Z,95955.88
2022-10-13T21:43:42.136Z,95958.19
2022-10-13T21:46:10.631Z,95954.50
2022-10-13T21:48:38.171Z,95952.63
2022-10-13T21:51:13.663Z,95953.16
2022-10-13T21:53:41.388Z,95951.34
2022-10-13T21:56:11.427Z,95959.94
2022-10-13T21:58:39.205Z,95956.84
2022-10-13T22:01:08.129Z,95955.03
2022-10-13T22:03:36.147Z,95949.88
2022-10-13T22:06:08.012Z,95951.19
2022-10-13T22:08:38.913Z,95954.31
2022-10-13T22:11:08.005Z,95949.38
2022-10-13T22:13:36.726Z,95958.00
2022-10-13T22:16:05.316Z,95952.28
2022-10-13T22:18:34.109Z,95947.31
2022-10-13T22:21:02.912Z,95957.00
2022-10-13T22:23:30.530Z,95957.50
2022-10-13T22:25:58.201Z,95944.75
2022-10-13T22:28:26.184Z,95945.28
2022-10-13T22:30:54.001Z,95950.50
2022-10-13T22:33:21.531Z,95932.97
2022-10-13T22:35:50.286Z,95942.66
2022-10-13T22:38:17.729Z,95938.25
2022-10-13T22:40:45.146Z,95944.78
2022-10-13T22:43:12.807Z,95937.47
2022-10-13T22:45:40.216Z,95935.13
2022-10-13T22:48:07.628Z,95929.94
2022-10-13T22:50:35.447Z,95930.69
2022-10-13T22:53:04.191Z,95928.88
2022-10-13T22:55:31.593Z,95928.34
2022-10-13T22:57:59.030Z,95918.19
2022-10-13T23:00:26.469Z,95927.38
2022-10-13T23:02:53.899Z,95922.38
2022-10-13T23:05:21.294Z,95929.97
2022-10-13T23:07:48.713Z,95924.25
2022-10-13T23:10:17.854Z,95915.88
2022-10-13T23:12:45.301Z,95922.41
2022-10-13T23:15:12.731Z,95921.66
2022-10-13T23:17:40.127Z,95919.03
2022-10-13T23:20:08.876Z,95926.38
2022-10-13T23:22:36.272Z,95918.00
2022-10-13T23:25:03.741Z,95912.25
2022-10-13T23:27:32.533Z,95916.16
2022-10-13T23:29:59.941Z,95913.56
2022-10-13T23:32:27.444Z,95915.94
2022-10-13T23:34:54.884Z,95906.00
2022-10-13T23:37:22.734Z,95910.69
2022-10-13T23:39:50.645Z,95906.25
2022-10-13T23:42:18.049Z,95908.09
2022-10-13T23:44:46.847Z,95907.78
2022-10-13T23:47:14.266Z,95910.16
2022-10-13T23:49:41.680Z,95899.44
2022-10-13T23:52:11.058Z,95905.50
2022-10-13T23:54:38.703Z,95904.66
2022-10-13T23:57:06.112Z,95905.72
2022-10-13T23:59:33.532Z,95898.38
